LFSTEDDR

Guest
Details From LFST - Entzheim
To EDDR - Saarbrucken
Flight Number -
Tags generated
Created
Modified
Stats Distance 46 nm / 85 km
Max Altitude 0 ft / 0 m
Waypoints 3
Social Downloads 0
Likes 0
Share VATSIM

Download

Looking for another format? Having issues loading an existing format? Contact us
Advertisement - Login to hide

Notes

Basic altitude profile: - Ascent Rate: 2500ft/min - Ascent Speed: 250kts - Cruise Altitude: 35000ft - Cruise Speed: 420kts - Descent Rate: 1500ft/min - Descent Speed: 250kts Options: - Use NATs: yes - Use PACOTS: yes - Use low airways: yes - Use high airways: yes

Route

LFST SBN EDDR

ID Type Via Altitude Latitude Longitude Leg Dist Tot Dist Heading (true) Name
O LFST APT - 0 ft / 0 m 48.53833˚ 7.62826˚ - 0 nm - Entzheim
SBN NDB - 0 ft / 0 m 49.21885˚ 7.11834˚ 45 nm 45 nm 334° / 334° SAARBRUCKEN NDB
O EDDR APT - 0 ft / 0 m 49.21534˚ 7.11261˚ 0 nm 45 nm 227° / 227° Saarbrucken

Altitude Profile

Advertisement - Login to hide

LFST

Details ICAO LFST (SXB)
Name Entzheim
Region France
Timezone Europe/Paris (UTC+1.0)
Stats Elevation 504 ft / 154 m (AMSL)
Location 48.538335° 7.628265°
Runways 1
Magnetic Variation 2.105° E

METAR

LFST 161700Z AUTO 22006KT 9999 FEW050 OVC062 03/01 Q1016 NOSIG

Decode

TAF

TAF LFST 161100Z 1612/1712 31008KT 9999 BKN050 BECMG 1617/1619 VRB03KT PROB30 TEMPO 1619/1623 4000 -SHRASN BKN014

Decode

Departure Runways

ID Width Length Bearing (true) Bearing (mag) Surface Threshold Offset Overrun Length
05 148 ft / 45 m 7,899 ft / 2,408 m 48.60° 46.50° Asphalt 0 ft / 0 m 860 ft / 262 m
23 148 ft / 45 m 7,899 ft / 2,408 m 228.62° 226.52° Asphalt 0 ft / 0 m 902 ft / 275 m

EDDR

Details ICAO EDDR (SCN)
Name Saarbrucken
Region Germany - Civil
Timezone Europe/Berlin (UTC+1.0)
Stats Elevation 1,057 ft / 322 m (AMSL)
Location 49.215343° 7.112610°
Runways 2
Magnetic Variation 1.954° E

METAR

EDDR 161720Z 27006KT 9999 FEW014 BKN045 02/01 Q1015 NOSIG

Decode

TAF

TAF EDDR 161100Z 1612/1712 27008KT 9999 SCT015 BKN025 TEMPO 1612/1621 4000 -SHSNRA BKN008 BKN015TCU PROB30 TEMPO 1621/1709 2000 -SHSN BKN005 SCT012TCU

Decode

Destination Runways

ID Width Length Bearing (true) Bearing (mag) Surface Threshold Offset Overrun Length
09 148 ft / 45 m 6,450 ft / 1,966 m 87.38° 85.43° Asphalt 85 ft / 26 m 0 ft / 0 m
09L 164 ft / 50 m 1,784 ft / 544 m 87.10° 85.15° Grass 0 ft / 0 m 0 ft / 0 m
27 148 ft / 45 m 6,450 ft / 1,966 m 267.40° 265.45° Asphalt 0 ft / 0 m 0 ft / 0 m
27R 164 ft / 50 m 1,784 ft / 544 m 267.10° 265.15° Grass 0 ft / 0 m 0 ft / 0 m

Approach Navaids

Runway Type Ident Frequency Range Bearing (true) Bearing (mag) Slope Elevation
27 Localiser DSB 108.70 MHz 25 nm / 46 km 267.37° 265.42° - 1,021 ft / 311 m (AMSL)
27 Glidescope DSB 108.70 MHz 10 nm / 19 km 267.39° 265.44° 3.00° 1,056 ft / 322 m (AMSL)

Popular Alternatives